Time;durP1;ratioP1;P1;durP2;ratioP2;P2;SDS_P1;SDS_P2;PMS_P1;PMS_P2;Temp;Humidity;BMP_temperature;BMP_pressure;BME280_temperature;BME280_humidity;BME280_pressure;Samples;Min_cycle;Max_cycle;Signal;HPM_P1;HPM_P2
2023/10/08 00:02:22;;;;;;;5.97;1.60;;;12.80;99.90;;;;;;4884466;29;20088;-95
2023/10/08 00:05:05;;;;;;;;;;;12.80;99.90;;;;;;4912963;29;20129;-95
2023/10/08 00:07:30;;;;;;;2.97;1.20;;;12.80;99.90;;;;;;4878472;29;19924;-95
2023/10/08 00:09:56;;;;;;;5.50;1.45;;;12.70;99.90;;;;;;4910218;29;20057;-95
2023/10/08 00:12:34;;;;;;;5.93;1.40;;;12.70;99.90;;;;;;4878856;29;20049;-95
2023/10/08 00:15:07;;;;;;;4.68;1.35;;;13.80;99.90;;;;;;4909832;29;20056;-95
2023/10/08 00:17:32;;;;;;;5.00;1.50;;;12.60;99.90;;;;;;4878480;29;20476;-95
2023/10/08 00:20:25;;;;;;;3.42;1.33;;;13.50;99.90;;;;;;4910207;29;20080;-95
2023/10/08 00:22:56;;;;;;;6.25;1.63;;;13.80;99.90;;;;;;4909345;29;20148;-94
2023/10/08 00:25:34;;;;;;;5.88;1.73;;;12.90;99.90;;;;;;4900858;29;20143;-94
2023/10/08 00:28:01;;;;;;;3.78;1.38;;;12.60;99.90;;;;;;4860386;29;20137;-95
2023/10/08 00:30:27;;;;;;;5.63;1.40;;;12.60;99.90;;;;;;4859316;29;20049;-94
2023/10/08 00:33:05;;;;;;;4.75;1.60;;;12.60;99.90;;;;;;4859914;29;20136;-95
2023/10/08 00:35:30;;;;;;;8.38;1.60;;;12.70;99.90;;;;;;4859985;29;20090;-95
2023/10/08 00:38:00;;;;;;;6.18;1.55;;;12.70;99.90;;;;;;4860291;29;20533;-95
2023/10/08 00:40:40;;;;;;;6.20;1.60;;;12.80;99.90;;;;;;4859811;29;20049;-95
2023/10/08 00:43:10;;;;;;;4.72;1.50;;;12.60;99.90;;;;;;4864971;29;20053;-94
2023/10/08 00:45:43;;;;;;;4.95;1.80;;;12.60;99.90;;;;;;4900402;29;20078;-95
2023/10/08 00:48:17;;;;;;;6.78;1.90;;;12.60;99.90;;;;;;4860522;29;20061;-95
2023/10/08 00:50:44;;;;;;;6.10;1.80;;;12.60;99.90;;;;;;4865309;29;20074;-94
2023/10/08 00:53:21;;;;;;;6.50;1.60;;;12.90;99.90;;;;;;4902450;29;20049;-96
2023/10/08 00:56:04;;;;;;;4.75;1.50;;;12.70;99.90;;;;;;4892286;29;20057;-96
2023/10/08 00:58:33;;;;;;;6.63;1.73;;;12.60;99.90;;;;;;4860649;29;20057;-96
2023/10/08 01:01:00;;;;;;;7.18;1.98;;;12.50;99.90;;;;;;4875144;29;20064;-96
2023/10/08 01:03:35;;;;;;;6.50;2.05;;;12.60;99.90;;;;;;4893795;29;20072;-95
2023/10/08 01:06:03;;;;;;;4.82;1.80;;;12.60;99.90;;;;;;4860333;29;20136;-95
2023/10/08 01:08:36;;;;;;;9.32;2.35;;;12.60;99.90;;;;;;4860040;29;20084;-96
2023/10/08 01:11:31;;;;;;;7.32;1.95;;;12.60;99.90;;;;;;4860165;29;20351;-95
2023/10/08 01:13:58;;;;;;;6.55;2.08;;;12.60;99.90;;;;;;4860022;29;20484;-96
2023/10/08 01:16:27;;;;;;;7.78;2.08;;;12.50;99.90;;;;;;4890863;29;20085;-96
2023/10/08 01:18:54;;;;;;;7.10;2.00;;;12.60;99.90;;;;;;4860207;29;20137;-95
2023/10/08 01:21:34;;;;;;;7.97;2.25;;;12.60;99.90;;;;;;4859775;29;20081;-95
2023/10/08 01:24:05;;;;;;;7.32;2.03;;;12.60;99.90;;;;;;4862714;29;20050;-92
2023/10/08 01:26:32;;;;;;;7.13;2.20;;;12.60;99.90;;;;;;4858681;29;20144;-93
2023/10/08 01:29:02;;;;;;;6.30;2.15;;;12.60;99.90;;;;;;4859163;29;20055;-95
2023/10/08 01:31:28;;;;;;;6.55;2.00;;;12.60;99.90;;;;;;4893578;29;20056;-93
2023/10/08 01:33:56;;;;;;;6.55;1.90;;;13.40;99.90;;;;;;4860080;29;20060;-94
2023/10/08 01:36:25;;;;;;;6.70;2.10;;;12.60;99.90;;;;;;4890133;29;20494;-95
2023/10/08 01:38:50;;;;;;;8.43;2.17;;;13.40;99.90;;;;;;4890826;29;20101;-94
2023/10/08 01:41:19;;;;;;;6.63;2.00;;;12.50;99.90;;;;;;4861035;29;20050;-92
2023/10/08 01:43:52;;;;;;;6.78;1.85;;;12.80;99.90;;;;;;4862714;29;20041;-94
2023/10/08 01:46:21;;;;;;;8.57;1.95;;;13.00;99.90;;;;;;4893523;29;20061;-92
2023/10/08 01:49:12;;;;;;;7.05;1.75;;;12.50;99.90;;;;;;4862498;29;20053;-93
2023/10/08 01:52:05;;;;;;;6.70;1.80;;;13.60;99.90;;;;;;4862681;29;20417;-93
2023/10/08 01:54:26;;;;;;;5.97;1.80;;;12.50;99.90;;;;;;4862169;29;20054;-93
2023/10/08 01:56:54;;;;;;;7.13;2.00;;;12.50;99.90;;;;;;4914574;29;20052;-91
2023/10/08 01:59:22;;;;;;;7.65;1.98;;;12.50;99.90;;;;;;4903278;29;20049;-92
2023/10/08 02:01:50;;;;;;;6.43;1.92;;;12.80;99.90;;;;;;4920879;29;20052;-93
2023/10/08 02:04:16;;;;;;;10.55;1.75;;;13.10;99.90;;;;;;4880724;29;20045;-91
2023/10/08 02:06:42;;;;;;;7.38;2.20;;;12.50;99.90;;;;;;4880829;29;20073;-93
2023/10/08 02:09:08;;;;;;;7.32;2.08;;;13.10;99.90;;;;;;4880378;29;20131;-92
2023/10/08 02:11:53;;;;;;;6.55;1.92;;;12.50;99.90;;;;;;4911235;29;20564;-92
2023/10/08 02:14:20;;;;;;;6.68;2.10;;;13.00;99.90;;;;;;4926194;29;20052;-93
2023/10/08 02:16:56;;;;;;;6.88;2.10;;;12.50;99.90;;;;;;4909958;29;20049;-91
2023/10/08 02:19:28;;;;;;;8.13;2.05;;;12.50;99.90;;;;;;4907066;29;20052;-93
2023/10/08 02:21:57;;;;;;;6.60;2.03;;;12.50;99.90;;;;;;4931114;29;20044;-94
2023/10/08 02:24:24;;;;;;;9.82;2.00;;;12.50;99.90;;;;;;4898748;29;20052;-93
2023/10/08 02:26:54;;;;;;;7.03;2.00;;;12.50;99.90;;;;;;4899313;29;20049;-94
2023/10/08 02:29:25;;;;;;;7.80;1.90;;;12.60;99.90;;;;;;4898511;29;20135;-93
2023/10/08 02:31:52;;;;;;;5.88;2.00;;;12.40;99.90;;;;;;4929709;29;20045;-93
2023/10/08 02:34:19;;;;;;;7.60;1.92;;;13.60;99.90;;;;;;4929327;29;20544;-93
2023/10/08 02:36:46;;;;;;;6.13;1.85;;;12.40;99.90;;;;;;4898929;29;20052;-93
2023/10/08 02:39:25;;;;;;;6.07;1.80;;;12.40;99.90;;;;;;4905176;29;20059;-93
2023/10/08 02:41:58;;;;;;;7.82;2.20;;;12.40;99.90;;;;;;4900119;29;20488;-94
2023/10/08 02:44:24;;;;;;;8.10;2.28;;;13.30;99.90;;;;;;4930332;29;20060;-93
2023/10/08 02:46:54;;;;;;;7.38;2.10;;;12.40;99.90;;;;;;4936393;29;20051;-93
2023/10/08 02:49:36;;;;;;;7.03;2.00;;;12.50;99.90;;;;;;4902575;29;20126;-93
2023/10/08 02:52:04;;;;;;;7.85;2.10;;;13.40;99.90;;;;;;4930483;29;20081;-93
2023/10/08 02:54:52;;;;;;;7.10;2.10;;;12.40;99.90;;;;;;4900531;29;20064;-93
2023/10/08 02:57:30;;;;;;;8.68;2.25;;;12.40;99.90;;;;;;4898362;29;20044;-94
2023/10/08 03:00:39;;;;;;;7.18;2.08;;;12.50;99.90;;;;;;4899599;29;20523;-92
2023/10/08 03:03:18;;;;;;;6.47;1.90;;;12.30;99.90;;;;;;4893631;29;20078;-93
2023/10/08 03:13:05;;;;;;;6.55;2.10;;;12.20;99.90;;;;;;4916269;29;20087;-95
2023/10/08 03:16:13;;;;;;;6.70;2.20;;;13.50;99.90;;;;;;4899770;29;20500;-93
2023/10/08 03:18:43;;;;;;;6.55;1.90;;;12.40;99.90;;;;;;4898098;29;20475;-91
2023/10/08 03:21:21;;;;;;;6.45;2.20;;;12.40;99.90;;;;;;4897635;29;20059;-94
2023/10/08 03:23:47;;;;;;;9.23;3.08;;;12.40;99.90;;;;;;4929568;29;20055;-94
2023/10/08 03:29:07;;;;;;;8.68;2.88;;;12.70;99.90;;;;;;4897710;29;20064;-94
2023/10/08 03:34:15;;;;;;;9.18;3.00;;;12.40;99.90;;;;;;4928573;29;20052;-94
2023/10/08 03:36:44;;;;;;;10.80;3.10;;;12.40;99.90;;;;;;4897736;29;20480;-94
2023/10/08 03:39:14;;;;;;;8.75;2.90;;;13.00;99.90;;;;;;4929466;29;20131;-94
2023/10/08 03:41:57;;;;;;;9.30;3.00;;;12.40;99.90;;;;;;4897904;29;20083;-93
2023/10/08 03:44:24;;;;;;;10.25;3.22;;;12.50;99.90;;;;;;4897660;29;20369;-94
2023/10/08 03:46:52;;;;;;;8.32;3.05;;;12.40;99.90;;;;;;4939472;23;20144;-94
2023/10/08 03:51:48;;;;;;;9.00;3.00;;;13.20;99.90;;;;;;4911061;29;20084;-94
2023/10/08 03:56:45;;;;;;;9.15;3.13;;;12.30;99.90;;;;;;4909840;29;20063;-95
2023/10/08 03:59:29;;;;;;;10.27;3.08;;;12.40;99.90;;;;;;4878250;29;20052;-93
2023/10/08 04:02:08;;;;;;;8.93;2.88;;;12.30;99.90;;;;;;4910517;29;20390;-94
2023/10/08 04:04:56;;;;;;;10.00;2.90;;;12.30;99.90;;;;;;4878602;29;20633;-93
2023/10/08 04:12:50;;;;;;;9.60;3.17;;;12.40;99.90;;;;;;4863585;29;20071;-94
2023/10/08 04:15:16;;;;;;;9.27;2.75;;;12.30;99.90;;;;;;4862532;29;20053;-95
2023/10/08 04:17:50;;;;;;;8.27;2.80;;;12.60;99.90;;;;;;4897967;29;20047;-93
2023/10/08 04:23:04;;;;;;;8.30;2.55;;;12.50;99.90;;;;;;4891590;29;20057;-93
2023/10/08 04:25:31;;;;;;;9.18;2.33;;;12.30;99.90;;;;;;4897915;29;20109;-94
2023/10/08 04:27:58;;;;;;;8.30;2.33;;;12.30;99.90;;;;;;4848742;29;20195;-94
2023/10/08 04:30:33;;;;;;;8.82;2.28;;;13.50;99.90;;;;;;4845025;29;20060;-94
2023/10/08 04:33:12;;;;;;;8.13;2.50;;;12.30;99.90;;;;;;4849718;29;20045;-92
2023/10/08 04:35:50;;;;;;;8.65;2.30;;;12.30;99.90;;;;;;4850866;29;20382;-94
2023/10/08 04:38:26;;;;;;;8.07;2.20;;;12.30;99.90;;;;;;4890506;29;20557;-94
2023/10/08 04:40:52;;;;;;;8.73;2.30;;;12.60;99.90;;;;;;4860168;29;20045;-94
2023/10/08 04:43:25;;;;;;;8.57;2.50;;;12.30;99.90;;;;;;4875247;29;20184;-93
2023/10/08 04:45:56;;;;;;;8.85;2.60;;;12.30;99.90;;;;;;4890334;29;20045;-94
2023/10/08 04:48:29;;;;;;;9.32;2.60;;;12.30;99.90;;;;;;4875817;29;20065;-94
2023/10/08 04:50:58;;;;;;;9.18;2.47;;;13.00;99.90;;;;;;4844463;29;20053;-93
2023/10/08 04:53:37;;;;;;;9.00;2.45;;;13.40;99.90;;;;;;4843765;29;20084;-94
2023/10/08 04:56:16;;;;;;;8.40;2.63;;;12.80;99.90;;;;;;4860215;29;20136;-93
2023/10/08 04:58:46;;;;;;;11.07;2.47;;;12.60;99.90;;;;;;4860619;29;20121;-93
2023/10/08 05:01:38;;;;;;;8.40;2.53;;;12.30;99.90;;;;;;4894728;29;20030;-96
2023/10/08 05:09:10;;;;;;;7.88;2.20;;;12.60;99.90;;;;;;4843596;29;20081;-89
2023/10/08 05:14:55;;;;;;;6.70;2.28;;;12.90;99.90;;;;;;4888243;29;20059;-92
2023/10/08 05:17:22;;;;;;;9.52;2.33;;;12.40;99.90;;;;;;4862833;29;20393;-89
2023/10/08 05:20:09;;;;;;;9.15;2.47;;;12.30;99.90;;;;;;4864409;29;20387;-89
2023/10/08 05:22:43;;;;;;;7.88;2.47;;;12.30;99.90;;;;;;4846257;29;20150;-90
2023/10/08 05:30:41;;;;;;;9.50;2.13;;;12.30;99.90;;;;;;4861447;29;20053;-91
2023/10/08 05:33:24;;;;;;;7.15;1.90;;;12.30;99.90;;;;;;4862190;29;20057;-91
2023/10/08 05:35:56;;;;;;;7.65;2.67;;;12.80;99.90;;;;;;4862630;29;20045;-90
2023/10/08 05:38:23;;;;;;;7.95;2.10;;;12.50;99.90;;;;;;4862483;29;20049;-84
2023/10/08 05:57:24;;;;;;;7.32;2.03;;;12.20;99.90;;;;;;4911589;29;20057;-84
2023/10/08 06:13:05;;;;;;;7.70;1.85;;;12.90;99.90;;;;;;4878570;29;20149;-86
2023/10/08 06:15:48;;;;;;;9.40;1.80;;;12.30;99.90;;;;;;4879661;29;20524;-83
2023/10/08 06:18:15;;;;;;;7.63;1.70;;;12.30;99.90;;;;;;4880326;29;20049;-83
2023/10/08 06:20:48;;;;;;;6.25;1.70;;;12.30;99.90;;;;;;4881686;29;20129;-83
2023/10/08 06:23:18;;;;;;;6.68;2.05;;;12.40;99.90;;;;;;4879261;29;20052;-84
2023/10/08 06:25:54;;;;;;;10.57;2.08;;;12.40;99.90;;;;;;4879802;29;20057;-81
2023/10/08 06:28:25;;;;;;;8.85;2.10;;;12.40;99.90;;;;;;4878321;29;20045;-84
2023/10/08 06:30:58;;;;;;;7.38;1.88;;;13.40;99.90;;;;;;4878728;29;20512;-84
2023/10/08 06:33:30;;;;;;;7.05;2.00;;;12.70;99.90;;;;;;4863451;29;20045;-84
2023/10/08 06:36:02;;;;;;;8.52;2.03;;;12.50;99.90;;;;;;4864967;29;20100;-85
2023/10/08 06:38:34;;;;;;;8.25;2.03;;;13.50;99.90;;;;;;4863258;29;20053;-85
2023/10/08 06:41:35;;;;;;;6.60;1.90;;;12.60;99.90;;;;;;4879260;29;20434;-83
2023/10/08 06:44:03;;;;;;;8.60;2.00;;;12.70;99.90;;;;;;4876786;29;20106;-85
2023/10/08 06:46:32;;;;;;;6.75;2.00;;;12.70;99.90;;;;;;4879251;29;20065;-84
2023/10/08 06:49:11;;;;;;;7.40;2.15;;;12.80;99.90;;;;;;4879478;29;20091;-85
2023/10/08 06:51:51;;;;;;;7.85;2.10;;;12.80;99.90;;;;;;4878492;29;20053;-84
2023/10/08 06:54:18;;;;;;;10.02;2.08;;;12.90;99.90;;;;;;4879869;29;20053;-84
2023/10/08 06:56:47;;;;;;;10.82;2.10;;;12.90;99.90;;;;;;4880513;29;20144;-84
2023/10/08 06:59:17;;;;;;;8.65;2.10;;;12.90;99.90;;;;;;4878469;29;20053;-84
2023/10/08 07:01:45;;;;;;;12.27;2.42;;;13.00;99.90;;;;;;4879840;29;20128;-85
2023/10/08 07:04:21;;;;;;;10.88;2.30;;;13.20;99.90;;;;;;4879954;29;20060;-84
2023/10/08 07:06:47;;;;;;;7.72;1.77;;;13.10;99.90;;;;;;4878984;29;20041;-86
2023/10/08 07:09:28;;;;;;;12.68;2.40;;;13.10;99.90;;;;;;4879699;29;20068;-86
2023/10/08 07:11:56;;;;;;;7.55;1.88;;;14.10;99.90;;;;;;4879007;29;20520;-85
2023/10/08 07:14:29;;;;;;;5.60;2.00;;;13.10;99.90;;;;;;4878785;29;20049;-86
2023/10/08 07:17:00;;;;;;;7.13;1.90;;;13.20;99.90;;;;;;4880052;29;20056;-85
2023/10/08 07:22:22;;;;;;;7.20;1.90;;;13.20;99.90;;;;;;4836240;29;20053;-83
2023/10/08 07:24:51;;;;;;;8.77;2.00;;;13.20;99.90;;;;;;4863836;29;20045;-83
2023/10/08 07:27:39;;;;;;;12.30;2.28;;;13.30;99.90;;;;;;4862833;29;20110;-85
2023/10/08 07:30:26;;;;;;;8.40;2.05;;;13.30;99.90;;;;;;4862542;29;20060;-87
2023/10/08 07:33:17;;;;;;;10.65;2.47;;;13.30;99.90;;;;;;4875584;29;20049;-85
2023/10/08 07:35:51;;;;;;;6.68;1.77;;;13.30;99.90;;;;;;4878704;29;20049;-85
2023/10/08 07:38:42;;;;;;;9.75;1.83;;;14.10;99.90;;;;;;4874408;29;20116;-85
2023/10/08 07:41:08;;;;;;;12.88;1.90;;;13.40;99.90;;;;;;4877602;29;20056;-85
2023/10/08 07:43:55;;;;;;;7.78;2.28;;;14.40;99.90;;;;;;4878435;29;20064;-86
2023/10/08 07:46:39;;;;;;;8.85;1.83;;;13.50;99.90;;;;;;4879583;29;20068;-86
2023/10/08 07:49:23;;;;;;;11.00;1.77;;;13.60;99.90;;;;;;4877429;29;20413;-86
2023/10/08 07:52:00;;;;;;;9.73;1.95;;;13.70;99.90;;;;;;4878992;29;20165;-86
2023/10/08 07:54:34;;;;;;;10.93;1.90;;;13.70;99.90;;;;;;4876710;29;20056;-86
2023/10/08 07:57:25;;;;;;;10.02;2.10;;;14.80;99.90;;;;;;4879104;29;20501;-87
2023/10/08 08:00:22;;;;;;;8.02;1.70;;;13.80;99.90;;;;;;4859949;29;20057;-84
2023/10/08 08:02:49;;;;;;;7.00;1.85;;;13.90;99.90;;;;;;4862244;29;20071;-87
2023/10/08 08:05:37;;;;;;;10.88;1.90;;;13.90;99.90;;;;;;4844920;29;20481;-87
2023/10/08 08:08:06;;;;;;;6.50;1.58;;;13.90;99.90;;;;;;4844794;29;20091;-87
2023/10/08 08:10:38;;;;;;;6.70;1.75;;;15.00;99.90;;;;;;4843178;29;20045;-86
2023/10/08 08:13:20;;;;;;;6.47;1.77;;;14.10;99.90;;;;;;4844454;29;20125;-84
2023/10/08 08:15:50;;;;;;;8.25;2.03;;;14.10;99.90;;;;;;4858823;29;20128;-84
2023/10/08 08:18:22;;;;;;;8.50;1.70;;;14.00;99.90;;;;;;4843686;29;20102;-84
2023/10/08 08:20:51;;;;;;;7.05;1.80;;;14.80;99.90;;;;;;4844152;29;20092;-86
2023/10/08 08:23:17;;;;;;;9.05;1.98;;;14.60;99.90;;;;;;4858409;29;20092;-89
2023/10/08 08:25:55;;;;;;;10.93;1.90;;;14.60;99.90;;;;;;4860689;29;20053;-89
2023/10/08 08:32:28;;;;;;;9.23;2.00;;;14.00;99.90;;;;;;4858793;29;20053;-85
2023/10/08 08:34:54;;;;;;;9.95;2.08;;;14.70;99.90;;;;;;4843852;29;20041;-86
2023/10/08 08:37:25;;;;;;;8.15;2.00;;;13.90;99.90;;;;;;4852432;29;20096;-85
2023/10/08 08:40:52;;;;;;;10.15;2.15;;;13.80;99.90;;;;;;4875783;29;20689;-85
2023/10/08 08:43:36;;;;;;;9.45;2.45;;;13.80;99.90;;;;;;4874980;29;20057;-85
2023/10/08 08:46:06;;;;;;;10.15;2.03;;;13.80;99.90;;;;;;4870442;29;20055;-85
2023/10/08 08:48:34;;;;;;;10.02;2.25;;;13.90;99.90;;;;;;4858714;29;20089;-85
2023/10/08 08:51:10;;;;;;;;;;;;;;;;;;;;;
2023/10/08 08:53:43;;;;;;;8.18;2.05;;;14.10;99.90;;;;;;4877208;29;20053;-85
2023/10/08 08:56:09;;;;;;;8.65;1.80;;;14.00;99.90;;;;;;4847379;29;20068;-85
2023/10/08 08:58:39;;;;;;;7.93;1.98;;;14.10;99.90;;;;;;4846405;29;20074;-85
2023/10/08 09:01:35;;;;;;;9.73;1.80;;;14.20;99.90;;;;;;4864034;29;20045;-85
2023/10/08 09:04:05;;;;;;;10.77;2.00;;;15.30;99.90;;;;;;4845562;29;20042;-86
2023/10/08 09:06:44;;;;;;;8.40;1.60;;;14.40;99.90;;;;;;4846096;29;20391;-86
2023/10/08 09:11:58;;;;;;;10.93;1.83;;;15.30;99.90;;;;;;4862354;29;20132;-87
2023/10/08 09:14:48;;;;;;;7.30;1.80;;;14.60;99.90;;;;;;4846250;29;20069;-83
2023/10/08 09:17:29;;;;;;;9.50;1.77;;;14.70;99.90;;;;;;4846290;29;20409;-82
2023/10/08 09:19:55;;;;;;;8.23;1.55;;;14.30;99.90;;;;;;4846500;29;20767;-82
2023/10/08 09:22:24;;;;;;;9.77;1.95;;;14.90;99.90;;;;;;4845657;29;20065;-82
2023/10/08 09:25:00;;;;;;;9.50;1.98;;;14.80;99.90;;;;;;4846525;29;20049;-83
2023/10/08 09:27:46;;;;;;;8.43;1.70;;;16.10;99.90;;;;;;4845904;29;20088;-83
2023/10/08 09:30:21;;;;;;;12.70;1.80;;;15.30;99.90;;;;;;4846075;29;20417;-82
2023/10/08 09:32:55;;;;;;;9.13;2.00;;;16.10;99.90;;;;;;4846290;29;20042;-82
2023/10/08 09:35:27;;;;;;;13.32;2.35;;;15.40;99.90;;;;;;4846382;29;20037;-83
2023/10/08 09:38:11;;;;;;;9.20;1.83;;;15.50;99.90;;;;;;4847250;29;20077;-83
2023/10/08 09:40:41;;;;;;;8.95;1.98;;;15.50;99.90;;;;;;4846018;29;20049;-82
2023/10/08 09:43:09;;;;;;;11.00;1.73;;;15.40;99.90;;;;;;4846458;29;20056;-83
2023/10/08 09:45:40;;;;;;;8.13;1.80;;;15.50;99.90;;;;;;4845899;29;20048;-82
2023/10/08 09:48:25;;;;;;;8.93;1.70;;;15.50;99.90;;;;;;4875889;29;20061;-83
2023/10/08 09:51:00;;;;;;;10.77;2.53;;;15.50;99.90;;;;;;4880738;29;20048;-83
2023/10/08 09:53:44;;;;;;;9.57;1.80;;;15.60;99.90;;;;;;4880066;29;20041;-83
2023/10/08 09:56:20;;;;;;;8.25;1.70;;;15.60;99.90;;;;;;4878926;29;20063;-82
2023/10/08 09:58:59;;;;;;;8.00;1.88;;;16.60;99.90;;;;;;4876533;29;20737;-82
2023/10/08 10:01:26;;;;;;;9.65;1.70;;;15.90;99.90;;;;;;4896029;29;20401;-82
2023/10/08 10:03:52;;;;;;;9.50;1.92;;;16.10;99.90;;;;;;4906947;29;20053;-82
2023/10/08 10:06:28;;;;;;;9.70;2.08;;;16.70;99.90;;;;;;4879781;29;20059;-83
2023/10/08 10:08:57;;;;;;;11.23;1.92;;;16.40;99.90;;;;;;4878393;29;20066;-82
2023/10/08 10:11:53;;;;;;;8.18;1.70;;;16.50;99.90;;;;;;4883526;29;20049;-83
2023/10/08 10:14:42;;;;;;;8.38;1.90;;;16.50;99.90;;;;;;4894090;29;20064;-83
2023/10/08 10:17:31;;;;;;;8.10;2.08;;;16.40;99.90;;;;;;4869095;29;20132;-82
2023/10/08 10:20:13;;;;;;;10.23;1.90;;;16.50;99.90;;;;;;4879601;29;20530;-83
2023/10/08 10:22:39;;;;;;;10.68;2.08;;;16.70;99.90;;;;;;4880906;29;20093;-82
2023/10/08 10:25:19;;;;;;;10.32;1.90;;;16.70;99.90;;;;;;4878502;29;20587;-83
2023/10/08 10:28:08;;;;;;;8.02;1.70;;;16.80;99.90;;;;;;4877679;29;20053;-83
2023/10/08 10:30:34;;;;;;;8.68;1.80;;;16.60;99.90;;;;;;4868154;29;20049;-85
2023/10/08 10:33:21;;;;;;;10.90;2.00;;;16.60;99.90;;;;;;4876418;29;20497;-85
2023/10/08 10:35:51;;;;;;;10.77;2.00;;;16.70;99.90;;;;;;4879651;29;20424;-85
2023/10/08 10:38:26;;;;;;;11.23;2.13;;;16.70;99.90;;;;;;4878786;29;20045;-86
2023/10/08 10:41:22;;;;;;;10.63;1.98;;;16.60;99.90;;;;;;4879178;29;20057;-85
2023/10/08 10:43:54;;;;;;;12.77;2.00;;;16.60;99.90;;;;;;4878983;29;20089;-85
2023/10/08 10:46:30;;;;;;;8.10;1.70;;;16.50;99.90;;;;;;4879123;29;20067;-85
2023/10/08 10:51:52;;;;;;;8.88;1.80;;;16.70;99.90;;;;;;4894561;29;20513;-80
2023/10/08 10:54:23;;;;;;;11.07;2.53;;;16.60;99.90;;;;;;4879314;29;20085;-87
2023/10/08 10:57:05;;;;;;;7.18;1.83;;;16.40;99.90;;;;;;4879678;29;20048;-84
2023/10/08 10:59:38;;;;;;;10.30;2.40;;;16.30;99.90;;;;;;4881293;29;20096;-82
2023/10/08 11:02:07;;;;;;;8.97;1.70;;;16.20;99.90;;;;;;4877885;29;20051;-83
2023/10/08 11:04:47;;;;;;;8.32;1.80;;;16.30;99.90;;;;;;4896967;29;20109;-84
2023/10/08 11:08:14;;;;;;;11.68;2.83;;;17.10;99.90;;;;;;4893015;29;20056;-84
2023/10/08 11:10:50;;;;;;;9.18;2.45;;;16.50;99.90;;;;;;4884578;29;20151;-84
2023/10/08 11:13:17;;;;;;;9.93;1.70;;;16.50;99.90;;;;;;4881204;29;20044;-84
2023/10/08 11:15:49;;;;;;;9.82;1.77;;;16.70;99.90;;;;;;4897261;29;20048;-84
2023/10/08 11:18:21;;;;;;;8.85;2.00;;;16.80;99.90;;;;;;4896770;29;20096;-84
2023/10/08 11:21:00;;;;;;;10.82;2.05;;;16.90;99.90;;;;;;4897341;29;20131;-85
2023/10/08 11:23:55;;;;;;;8.10;1.80;;;17.20;99.90;;;;;;4897020;29;20456;-84
2023/10/08 11:26:38;;;;;;;10.43;1.83;;;17.40;99.90;;;;;;4896242;29;20501;-84
2023/10/08 11:29:25;;;;;;;11.38;1.80;;;17.60;99.90;;;;;;4897084;29;20101;-84
2023/10/08 11:32:17;;;;;;;10.02;2.30;;;17.80;99.90;;;;;;4897428;29;20068;-84
2023/10/08 11:35:00;;;;;;;11.20;1.90;;;17.90;99.90;;;;;;4897778;29;20049;-84
2023/10/08 11:37:36;;;;;;;7.75;2.17;;;18.00;99.90;;;;;;4897226;29;20076;-84
2023/10/08 11:40:17;;;;;;;9.65;2.00;;;18.30;99.90;;;;;;4891635;29;20458;-84
2023/10/08 11:42:43;;;;;;;8.85;1.75;;;18.50;99.90;;;;;;4878855;29;20057;-85
2023/10/08 11:48:11;;;;;;;9.48;2.05;;;18.20;99.90;;;;;;4904356;29;20052;-85
2023/10/08 11:50:40;;;;;;;9.90;1.80;;;18.30;99.90;;;;;;4878677;29;20053;-84
2023/10/08 11:53:06;;;;;;;9.23;1.77;;;18.30;99.90;;;;;;4878251;29;20056;-84
2023/10/08 11:55:38;;;;;;;8.45;1.80;;;18.20;99.90;;;;;;4877089;29;20131;-84
2023/10/08 11:58:37;;;;;;;10.60;2.08;;;18.10;99.90;;;;;;4878014;29;20552;-84
2023/10/08 12:01:11;;;;;;;9.35;1.88;;;18.00;99.90;;;;;;4877196;29;20041;-85
2023/10/08 12:03:46;;;;;;;8.50;1.90;;;18.10;99.90;;;;;;4877839;29;20076;-85
2023/10/08 12:06:21;;;;;;;8.85;1.70;;;18.00;99.90;;;;;;4876227;29;20052;-84
2023/10/08 12:09:11;;;;;;;9.63;2.20;;;18.20;99.90;;;;;;4907669;29;20456;-84
2023/10/08 12:11:51;;;;;;;9.65;1.80;;;18.50;99.90;;;;;;4877399;29;20492;-83
2023/10/08 12:16:47;;;;;;;9.10;1.92;;;19.10;99.90;;;;;;4885612;29;20063;-84
2023/10/08 12:19:15;;;;;;;8.05;1.70;;;19.10;99.90;;;;;;4893896;29;20052;-85
2023/10/08 12:21:41;;;;;;;11.25;1.80;;;19.50;99.90;;;;;;4879180;29;20467;-84
2023/10/08 12:24:10;;;;;;;8.48;1.80;;;19.60;99.90;;;;;;4880142;29;20143;-86
2023/10/08 12:26:36;;;;;;;10.65;2.00;;;19.70;99.90;;;;;;4879855;29;20053;-85
2023/10/08 12:29:02;;;;;;;7.05;1.70;;;19.80;99.90;;;;;;4910791;29;20052;-85
2023/10/08 12:31:29;;;;;;;8.30;1.73;;;19.60;99.90;;;;;;4879949;29;20140;-84
2023/10/08 12:34:11;;;;;;;9.68;2.00;;;19.50;99.90;;;;;;4879826;29;20090;-84
2023/10/08 12:36:50;;;;;;;9.50;1.70;;;19.20;99.90;;;;;;4878983;29;20040;-84
2023/10/08 12:39:28;;;;;;;8.38;1.73;;;19.20;99.90;;;;;;4879740;29;20056;-84
2023/10/08 12:42:12;;;;;;;6.32;1.75;;;19.10;99.90;;;;;;4910808;29;20523;-84
2023/10/08 12:44:48;;;;;;;13.07;2.58;;;19.00;99.90;;;;;;4911084;29;20049;-84
2023/10/08 12:47:18;;;;;;;7.70;1.85;;;18.90;99.90;;;;;;4910805;29;20053;-84
2023/10/08 12:49:57;;;;;;;9.25;1.50;;;18.90;99.90;;;;;;4910358;29;20055;-84
2023/10/08 12:52:52;;;;;;;7.75;1.60;;;18.90;99.90;;;;;;4879974;29;20135;-85
2023/10/08 12:55:39;;;;;;;9.43;1.95;;;18.80;99.90;;;;;;4879931;29;20041;-85
2023/10/08 12:58:38;;;;;;;;;;;18.70;99.90;;;;;;4878448;29;20083;-85
2023/10/08 13:01:06;;;;;;;8.52;1.80;;;18.70;99.90;;;;;;4879472;29;20067;-85
2023/10/08 13:03:32;;;;;;;6.53;1.67;;;18.60;99.90;;;;;;4879831;29;20067;-85
2023/10/08 13:08:52;;;;;;;8.27;1.58;;;18.70;99.90;;;;;;4879610;29;20493;-84
2023/10/08 13:11:29;;;;;;;9.95;1.70;;;18.70;99.90;;;;;;4878773;29;20056;-84
2023/10/08 13:13:59;;;;;;;8.27;1.90;;;18.80;99.90;;;;;;4880327;29;20036;-84
2023/10/08 13:16:26;;;;;;;8.77;2.35;;;19.00;99.90;;;;;;4879692;29;20121;-85
2023/10/08 13:18:55;;;;;;;7.53;1.85;;;19.10;99.90;;;;;;4894462;29;20041;-84
2023/10/08 13:21:22;;;;;;;8.50;1.80;;;19.10;99.90;;;;;;4879136;29;20036;-85
2023/10/08 13:23:48;;;;;;;10.20;2.00;;;19.30;99.90;;;;;;4909947;29;20052;-85
2023/10/08 13:26:17;;;;;;;10.05;2.15;;;19.10;99.90;;;;;;4909319;29;20497;-84
2023/10/08 13:28:44;;;;;;;8.07;1.92;;;19.20;99.90;;;;;;4879773;29;20037;-84
2023/10/08 13:31:10;;;;;;;9.30;1.73;;;19.30;99.90;;;;;;4879347;29;20053;-84
2023/10/08 13:37:18;;;;;;;8.40;1.90;;;19.40;99.90;;;;;;4885001;29;20044;-85
2023/10/08 13:39:50;;;;;;;9.23;1.85;;;19.40;99.90;;;;;;4882311;29;20048;-84
2023/10/08 13:42:29;;;;;;;7.40;1.88;;;19.20;99.90;;;;;;4882570;29;20048;-85
2023/10/08 13:44:57;;;;;;;7.72;1.73;;;19.00;99.90;;;;;;4914038;29;20060;-84
2023/10/08 13:47:25;;;;;;;8.50;2.28;;;19.20;99.90;;;;;;4881314;29;20041;-85
2023/10/08 13:50:10;;;;;;;8.63;1.90;;;19.20;99.90;;;;;;4882542;29;20045;-84
2023/10/08 13:52:39;;;;;;;7.78;1.70;;;19.10;99.90;;;;;;4914093;29;20045;-84
2023/10/08 13:55:07;;;;;;;9.95;1.63;;;18.90;99.90;;;;;;4882377;29;20068;-85
2023/10/08 13:57:35;;;;;;;8.90;1.77;;;18.70;99.90;;;;;;4883117;29;20135;-84
2023/10/08 14:00:12;;;;;;;8.48;2.13;;;18.50;99.90;;;;;;4894370;29;20148;-84
2023/10/08 14:03:09;;;;;;;6.68;1.80;;;18.30;99.90;;;;;;4882309;29;20052;-84
2023/10/08 14:05:40;;;;;;;10.95;4.47;;;18.00;99.90;;;;;;4887402;29;20080;-84
2023/10/08 14:08:12;;;;;;;9.05;3.25;;;18.50;99.90;;;;;;4880281;29;20052;-85
2023/10/08 14:10:56;;;;;;;8.85;2.13;;;18.20;99.90;;;;;;4880384;29;20048;-84
2023/10/08 14:13:24;;;;;;;10.30;3.00;;;17.90;99.90;;;;;;4894669;29;20052;-83
2023/10/08 14:16:43;;;;;;;9.15;2.03;;;17.80;99.90;;;;;;4884764;29;20124;-83
2023/10/08 14:19:13;;;;;;;7.93;1.85;;;17.50;99.90;;;;;;4862461;29;20048;-84
2023/10/08 14:22:02;;;;;;;7.18;1.90;;;17.80;99.90;;;;;;4870975;29;20457;-84
2023/10/08 14:24:32;;;;;;;9.73;2.17;;;17.70;99.90;;;;;;4883220;29;20542;-84
2023/10/08 14:27:07;;;;;;;10.13;2.20;;;17.70;99.90;;;;;;4863809;29;20512;-84
2023/10/08 14:29:34;;;;;;;7.90;1.55;;;17.70;99.90;;;;;;4862482;29;20049;-84
2023/10/08 14:32:00;;;;;;;10.50;1.88;;;17.60;99.90;;;;;;4863254;29;20104;-84
2023/10/08 14:42:59;;;;;;;7.43;1.88;;;17.60;99.90;;;;;;4894168;29;20045;-84
2023/10/08 14:45:40;;;;;;;8.30;1.90;;;17.50;99.90;;;;;;4893802;29;20049;-84
2023/10/08 14:48:11;;;;;;;7.63;1.85;;;17.40;99.90;;;;;;4862764;29;20052;-84
2023/10/08 14:50:49;;;;;;;10.77;2.20;;;17.40;99.90;;;;;;4892476;29;20135;-84
2023/10/08 14:53:31;;;;;;;10.25;1.92;;;17.40;99.90;;;;;;4879966;29;20136;-84
2023/10/08 14:56:13;;;;;;;7.53;1.80;;;17.30;99.90;;;;;;4861270;29;20140;-83
2023/10/08 14:59:30;;;;;;;5.40;1.73;;;17.20;99.90;;;;;;4851467;29;20100;-84
2023/10/08 15:05:47;;;;;;;5.40;1.52;;;16.80;99.90;;;;;;4898175;29;20499;-84
2023/10/08 15:08:14;;;;;;;12.48;3.30;;;16.70;99.90;;;;;;4896932;29;20124;-83
2023/10/08 15:11:10;;;;;;;6.40;1.67;;;16.80;99.90;;;;;;4895487;29;20081;-83
2023/10/08 15:13:38;;;;;;;8.68;1.92;;;16.60;99.90;;;;;;4880341;29;20086;-83